createdAt,value
2019-06-26T00:00:09.138Z,11.93
2019-06-26T00:00:45.211Z,11.90
2019-06-26T00:01:21.161Z,11.27
2019-06-26T00:01:57.098Z,11.97
2019-06-26T00:02:32.949Z,10.97
2019-06-26T00:03:08.806Z,11.30
2019-06-26T00:03:44.674Z,9.30
2019-06-26T00:04:20.685Z,10.73
2019-06-26T00:04:56.801Z,10.17
2019-06-26T00:05:32.727Z,9.77
2019-06-26T00:06:08.728Z,11.13
2019-06-26T00:06:44.554Z,11.83
2019-06-26T00:07:20.407Z,12.20
2019-06-26T00:07:56.326Z,9.93
2019-06-26T00:08:32.180Z,10.27
2019-06-26T00:09:10.415Z,10.33
2019-06-26T00:09:46.330Z,10.57
2019-06-26T00:10:22.346Z,10.40
2019-06-26T00:10:58.254Z,11.53
2019-06-26T00:11:34.087Z,10.10
2019-06-26T00:12:09.925Z,10.30
2019-06-26T00:12:45.794Z,11.00
2019-06-26T00:13:26.202Z,11.53
2019-06-26T00:13:59.238Z,10.00
2019-06-26T00:14:38.585Z,11.07
2019-06-26T00:15:12.840Z,10.60
2019-06-26T00:15:49.777Z,10.00
2019-06-26T00:16:25.585Z,10.57
2019-06-26T00:17:01.359Z,10.03
2019-06-26T00:17:37.234Z,10.03
2019-06-26T00:18:13.072Z,10.10
2019-06-26T00:18:48.945Z,10.70
2019-06-26T00:19:24.986Z,10.27
2019-06-26T00:20:00.919Z,10.17
2019-06-26T00:20:36.805Z,10.80
2019-06-26T00:21:12.646Z,10.03
2019-06-26T00:21:48.632Z,9.80
2019-06-26T00:22:24.441Z,8.90
2019-06-26T00:23:00.284Z,9.33
2019-06-26T00:23:36.829Z,10.03
2019-06-26T00:24:23.779Z,9.40
2019-06-26T00:24:59.748Z,11.17
2019-06-26T00:25:36.581Z,9.10
2019-06-26T00:26:14.829Z,10.03
2019-06-26T00:26:50.808Z,9.77
2019-06-26T00:27:26.817Z,10.80
2019-06-26T00:28:04.474Z,9.37
2019-06-26T00:28:41.081Z,10.80
2019-06-26T00:29:16.997Z,9.70
2019-06-26T00:29:52.880Z,10.70
2019-06-26T00:30:29.827Z,9.40
2019-06-26T00:31:05.860Z,10.10
2019-06-26T00:31:41.731Z,10.87
2019-06-26T00:32:17.571Z,9.20
2019-06-26T00:32:55.765Z,9.77
2019-06-26T00:33:34.647Z,10.27
2019-06-26T00:34:12.859Z,10.60
2019-06-26T00:34:50.550Z,9.43
2019-06-26T00:35:31.207Z,9.60
2019-06-26T00:36:07.185Z,9.30
2019-06-26T00:36:46.003Z,9.03
2019-06-26T00:37:22.554Z,9.77
2019-06-26T00:37:58.445Z,9.10
2019-06-26T00:38:41.504Z,10.93
2019-06-26T00:39:19.696Z,10.47
2019-06-26T00:40:03.118Z,9.03
2019-06-26T00:40:39.060Z,10.10
2019-06-26T00:41:14.928Z,8.60
2019-06-26T00:41:52.883Z,9.23
2019-06-26T00:42:33.560Z,9.13
2019-06-26T00:43:09.447Z,8.90
2019-06-26T00:43:46.306Z,8.60
2019-06-26T00:44:22.159Z,9.40
2019-06-26T00:44:57.984Z,10.03
2019-06-26T00:45:38.082Z,7.47
2019-06-26T00:46:17.182Z,9.33
2019-06-26T00:46:55.346Z,9.90
2019-06-26T00:47:31.420Z,9.00
2019-06-26T00:48:07.390Z,7.77
2019-06-26T00:48:47.543Z,8.70
2019-06-26T00:49:24.522Z,9.03
2019-06-26T00:50:03.761Z,8.20
2019-06-26T00:50:48.013Z,8.17
2019-06-26T00:51:23.927Z,8.33
2019-06-26T00:52:00.010Z,8.30
2019-06-26T00:52:43.005Z,9.20
2019-06-26T00:53:21.038Z,9.13
2019-06-26T00:53:57.134Z,8.73
2019-06-26T00:54:33.852Z,8.53
2019-06-26T00:55:09.843Z,7.50
2019-06-26T00:55:55.286Z,8.40
2019-06-26T00:56:33.103Z,8.10
2019-06-26T00:57:08.982Z,8.67
2019-06-26T00:57:45.009Z,8.20
2019-06-26T00:58:29.453Z,6.63
2019-06-26T00:59:06.115Z,8.63
2019-06-26T00:59:42.903Z,8.93
2019-06-26T01:00:27.124Z,7.37
2019-06-26T01:01:11.988Z,8.73
2019-06-26T01:01:51.743Z,8.10
2019-06-26T01:02:32.303Z,7.50
2019-06-26T01:03:14.479Z,7.60
2019-06-26T01:04:50.506Z,8.30
2019-06-26T01:05:31.656Z,7.80
2019-06-26T01:06:13.555Z,7.80
2019-06-26T01:06:58.899Z,7.97
2019-06-26T01:07:34.822Z,8.77
2019-06-26T01:08:19.172Z,7.93
2019-06-26T01:08:55.818Z,8.80
2019-06-26T01:09:34.726Z,8.07
2019-06-26T01:10:11.321Z,6.90
2019-06-26T01:10:52.289Z,7.43
2019-06-26T01:11:30.856Z,7.33
2019-06-26T01:12:08.879Z,7.07
2019-06-26T01:12:47.475Z,6.37
2019-06-26T01:13:31.937Z,7.23
2019-06-26T01:14:12.079Z,7.10
2019-06-26T01:14:50.116Z,6.17
2019-06-26T01:16:20.881Z,7.20
2019-06-26T01:17:53.230Z,6.27
2019-06-26T01:18:33.659Z,6.30
2019-06-26T01:19:22.660Z,6.97
2019-06-26T01:20:01.160Z,7.20
2019-06-26T01:20:39.501Z,6.50
2019-06-26T01:22:23.624Z,6.73
2019-06-26T01:23:05.274Z,6.37
2019-06-26T01:23:47.060Z,6.60
2019-06-26T01:24:38.291Z,7.43
2019-06-26T01:25:14.167Z,6.50
2019-06-26T01:25:50.085Z,6.33
2019-06-26T01:26:28.735Z,7.47
2019-06-26T01:27:09.146Z,7.10
2019-06-26T01:27:48.156Z,6.10
2019-06-26T01:28:24.705Z,6.40
2019-06-26T01:29:00.612Z,6.53
2019-06-26T01:29:40.553Z,6.87
2019-06-26T01:30:17.364Z,5.33
2019-06-26T01:30:56.821Z,6.87
2019-06-26T01:31:36.673Z,5.47
2019-06-26T01:32:14.139Z,7.10
2019-06-26T01:32:57.983Z,6.37
2019-06-26T01:33:34.899Z,6.57
2019-06-26T01:34:12.440Z,7.77
2019-06-26T01:34:59.841Z,7.40
2019-06-26T01:35:40.284Z,7.70
2019-06-26T01:36:19.096Z,7.30
2019-06-26T01:37:06.677Z,6.93
2019-06-26T01:37:49.291Z,7.57
2019-06-26T01:38:33.501Z,7.30
2019-06-26T01:40:04.922Z,7.40
2019-06-26T01:40:41.970Z,7.97
2019-06-26T01:41:23.315Z,6.40
2019-06-26T01:42:04.088Z,5.97
2019-06-26T01:42:42.327Z,7.37
2019-06-26T01:43:19.110Z,8.00
2019-06-26T01:43:55.014Z,9.30
2019-06-26T01:44:34.986Z,9.07
2019-06-26T01:45:11.713Z,8.50
2019-06-26T01:45:56.266Z,9.20
2019-06-26T01:47:30.745Z,7.90
2019-06-26T01:48:10.372Z,7.70
2019-06-26T01:48:48.663Z,8.10
2019-06-26T01:49:27.277Z,7.30
2019-06-26T01:50:04.269Z,7.83
2019-06-26T01:50:42.546Z,6.90
2019-06-26T01:51:19.291Z,7.60
2019-06-26T01:52:01.297Z,6.90
2019-06-26T01:52:50.141Z,7.17
2019-06-26T01:53:27.637Z,6.90
2019-06-26T01:55:07.111Z,7.23
2019-06-26T01:55:47.805Z,8.23
2019-06-26T01:56:35.230Z,6.50
2019-06-26T01:57:11.379Z,8.27
2019-06-26T01:57:52.131Z,7.70
2019-06-26T01:59:32.059Z,7.20
2019-06-26T02:00:08.959Z,9.07
2019-06-26T02:00:57.056Z,7.60
2019-06-26T02:01:41.897Z,8.00
2019-06-26T02:02:22.006Z,8.40
2019-06-26T02:03:53.673Z,7.50
2019-06-26T02:04:29.471Z,8.17
2019-06-26T02:05:06.344Z,8.63
2019-06-26T02:05:50.949Z,8.70
2019-06-26T02:06:26.838Z,7.90
2019-06-26T02:07:02.946Z,8.30
2019-06-26T02:07:40.421Z,8.83
2019-06-26T02:08:16.789Z,8.50
2019-06-26T02:08:55.612Z,9.47
2019-06-26T02:10:28.274Z,8.10
2019-06-26T02:11:18.501Z,8.10
2019-06-26T02:12:03.158Z,7.43
2019-06-26T02:12:41.720Z,8.70
2019-06-26T02:13:22.225Z,9.40
2019-06-26T02:13:59.690Z,8.17
2019-06-26T02:14:44.980Z,7.30
2019-06-26T02:15:21.837Z,8.17
2019-06-26T02:15:58.652Z,7.20
2019-06-26T02:16:34.950Z,8.77
2019-06-26T02:17:10.818Z,7.10
2019-06-26T02:17:47.029Z,8.33
2019-06-26T02:18:41.978Z,8.93
2019-06-26T02:19:18.557Z,7.20
2019-06-26T02:19:55.572Z,8.27
2019-06-26T02:20:36.820Z,8.87
2019-06-26T02:21:12.636Z,8.37
2019-06-26T02:21:49.750Z,8.73
2019-06-26T02:22:34.172Z,7.57
2019-06-26T02:23:10.898Z,9.23
2019-06-26T02:23:50.317Z,8.00
2019-06-26T02:24:28.765Z,7.17
2019-06-26T02:25:12.726Z,8.53
2019-06-26T02:25:50.524Z,8.83
2019-06-26T02:26:29.694Z,8.37
2019-06-26T02:28:19.366Z,9.10
2019-06-26T02:28:59.351Z,8.03
2019-06-26T02:29:36.968Z,8.33
2019-06-26T02:30:13.638Z,9.57
2019-06-26T02:30:51.989Z,9.43
2019-06-26T02:31:32.213Z,8.27
2019-06-26T02:32:08.908Z,8.53
2019-06-26T02:32:46.922Z,8.30
2019-06-26T02:33:28.846Z,7.90
2019-06-26T02:34:06.844Z,7.27
2019-06-26T02:34:46.633Z,9.60
2019-06-26T02:35:23.082Z,10.63
2019-06-26T02:36:00.560Z,10.23
2019-06-26T02:36:38.069Z,10.27
2019-06-26T02:37:22.236Z,10.90
2019-06-26T02:38:12.680Z,11.13
2019-06-26T02:38:48.551Z,11.30
2019-06-26T02:39:24.980Z,10.53
2019-06-26T02:40:00.989Z,10.53
2019-06-26T02:40:36.919Z,10.97
2019-06-26T02:41:13.746Z,11.13
2019-06-26T02:41:49.734Z,11.60
2019-06-26T02:42:30.676Z,12.00
2019-06-26T02:43:09.878Z,12.50
2019-06-26T02:43:48.528Z,11.30
2019-06-26T02:44:24.406Z,11.00
2019-06-26T02:45:09.643Z,10.77
2019-06-26T02:45:46.757Z,11.40
2019-06-26T02:46:22.693Z,10.50
2019-06-26T02:47:18.328Z,12.83
2019-06-26T02:47:41.520Z,10.60
2019-06-26T02:48:20.533Z,11.10
2019-06-26T02:48:58.941Z,11.50
2019-06-26T02:49:35.073Z,12.37
2019-06-26T02:50:10.933Z,12.03
2019-06-26T02:50:56.422Z,12.60
2019-06-26T02:51:32.380Z,11.20
2019-06-26T02:52:08.991Z,9.23
2019-06-26T02:52:45.447Z,10.03
2019-06-26T02:53:21.562Z,11.07
2019-06-26T02:53:57.534Z,10.17
2019-06-26T02:54:33.433Z,9.77
2019-06-26T02:55:09.979Z,10.17
2019-06-26T02:55:45.917Z,10.77
2019-06-26T02:56:21.875Z,7.90
2019-06-26T02:56:57.737Z,8.30
2019-06-26T02:57:33.592Z,8.53
2019-06-26T02:58:09.459Z,8.00
2019-06-26T02:58:45.420Z,8.80
2019-06-26T02:59:21.863Z,7.73
2019-06-26T02:59:58.914Z,8.63
2019-06-26T03:00:34.703Z,8.87
2019-06-26T03:01:10.660Z,7.93
2019-06-26T03:01:46.538Z,7.13
2019-06-26T03:02:22.364Z,7.37
2019-06-26T03:02:58.272Z,7.40
2019-06-26T03:03:34.168Z,7.83
2019-06-26T03:04:10.031Z,8.43
2019-06-26T03:04:45.812Z,8.47
2019-06-26T03:05:21.637Z,7.10
2019-06-26T03:05:57.704Z,7.90
2019-06-26T03:06:33.529Z,7.10
2019-06-26T03:07:09.396Z,7.03
2019-06-26T03:07:48.150Z,7.53
2019-06-26T03:08:23.985Z,6.40
2019-06-26T03:08:59.843Z,6.73
2019-06-26T03:09:35.688Z,7.50
2019-06-26T03:10:12.043Z,7.30
2019-06-26T03:10:47.902Z,7.73
2019-06-26T03:11:24.003Z,6.60
2019-06-26T03:11:59.874Z,6.27
2019-06-26T03:12:35.718Z,7.03
2019-06-26T03:13:11.667Z,6.97
2019-06-26T03:13:47.463Z,6.40
2019-06-26T03:14:23.779Z,6.47
2019-06-26T03:15:08.987Z,6.40
2019-06-26T03:15:37.293Z,5.23
2019-06-26T03:16:13.145Z,6.43
2019-06-26T03:16:48.963Z,5.53
2019-06-26T03:17:24.752Z,6.43
2019-06-26T03:18:00.588Z,6.13
2019-06-26T03:18:36.793Z,6.73
2019-06-26T03:19:12.665Z,5.60
2019-06-26T03:19:48.463Z,5.73
2019-06-26T03:20:27.396Z,6.27
2019-06-26T03:21:03.229Z,6.30
2019-06-26T03:21:39.083Z,6.37
2019-06-26T03:22:14.842Z,5.97
2019-06-26T03:22:50.658Z,5.10
2019-06-26T03:23:26.499Z,5.57
2019-06-26T03:24:02.312Z,6.53
2019-06-26T03:24:38.197Z,5.73
2019-06-26T03:25:14.177Z,5.90
2019-06-26T03:25:50.012Z,5.13
2019-06-26T03:26:25.843Z,5.20
2019-06-26T03:27:01.694Z,6.30
2019-06-26T03:27:37.683Z,5.87
2019-06-26T03:28:14.620Z,5.97
2019-06-26T03:28:50.764Z,6.17
2019-06-26T03:29:27.073Z,5.07
2019-06-26T03:30:03.140Z,5.50
2019-06-26T03:30:39.291Z,4.83
2019-06-26T03:31:15.355Z,6.13
2019-06-26T03:31:51.575Z,5.90
2019-06-26T03:32:27.832Z,5.63
2019-06-26T03:33:04.190Z,5.37
2019-06-26T03:33:41.292Z,5.20
2019-06-26T03:34:17.378Z,5.33
2019-06-26T03:34:53.648Z,5.10
2019-06-26T03:35:29.902Z,4.60
2019-06-26T03:36:06.042Z,5.60
2019-06-26T03:36:42.406Z,5.03
2019-06-26T03:37:18.639Z,5.23
2019-06-26T03:37:54.891Z,5.10
2019-06-26T03:38:31.148Z,4.93
2019-06-26T03:39:08.653Z,4.63
2019-06-26T03:39:44.959Z,4.10
2019-06-26T03:40:21.169Z,5.40
2019-06-26T03:40:57.384Z,4.73
2019-06-26T03:41:33.622Z,4.47
2019-06-26T03:42:09.876Z,4.90
2019-06-26T03:42:46.141Z,5.70
2019-06-26T03:43:22.475Z,5.77
2019-06-26T03:43:58.751Z,6.93
2019-06-26T03:44:35.020Z,5.47
2019-06-26T03:45:24.637Z,6.20
2019-06-26T03:45:48.922Z,5.10
2019-06-26T03:46:24.826Z,5.03
2019-06-26T03:47:00.671Z,5.70
2019-06-26T03:47:36.631Z,5.43
2019-06-26T03:48:12.512Z,5.50
2019-06-26T03:48:48.460Z,5.87
2019-06-26T03:49:24.332Z,5.70
2019-06-26T03:50:00.278Z,5.27
2019-06-26T03:50:36.447Z,6.27
2019-06-26T03:51:14.113Z,5.10
2019-06-26T03:51:50.475Z,6.60
2019-06-26T03:52:26.605Z,4.90
2019-06-26T03:53:02.920Z,5.67
2019-06-26T03:53:39.022Z,4.67
2019-06-26T03:54:15.148Z,6.60
2019-06-26T03:54:51.425Z,6.07
2019-06-26T03:55:27.567Z,5.70
2019-06-26T03:56:03.645Z,5.90
2019-06-26T03:56:39.802Z,5.60
2019-06-26T03:57:15.937Z,4.87
2019-06-26T03:57:52.045Z,6.30
2019-06-26T03:58:28.125Z,5.63
2019-06-26T03:59:04.239Z,4.93
2019-06-26T03:59:40.327Z,6.30
2019-06-26T04:00:17.995Z,5.00
2019-06-26T04:00:54.226Z,5.43
2019-06-26T04:01:30.329Z,4.90
2019-06-26T04:02:06.561Z,5.83
2019-06-26T04:02:42.648Z,5.40
2019-06-26T04:03:18.800Z,5.70
2019-06-26T04:03:57.373Z,5.50
2019-06-26T04:04:32.836Z,5.90
2019-06-26T04:05:09.016Z,6.17
2019-06-26T04:05:45.089Z,5.40
2019-06-26T04:06:21.406Z,4.80
2019-06-26T04:06:57.563Z,5.13
2019-06-26T04:07:33.764Z,5.70
2019-06-26T04:08:09.977Z,5.40
2019-06-26T04:08:46.299Z,6.10
2019-06-26T04:09:22.407Z,4.90
2019-06-26T04:09:58.459Z,5.27
2019-06-26T04:10:34.652Z,5.67
2019-06-26T04:11:10.903Z,5.50
2019-06-26T04:11:47.141Z,5.00
2019-06-26T04:12:23.298Z,4.27
2019-06-26T04:12:59.409Z,5.90
2019-06-26T04:13:35.697Z,6.00
2019-06-26T04:14:11.762Z,6.07
2019-06-26T04:14:47.911Z,5.53
2019-06-26T04:15:24.088Z,4.93
2019-06-26T04:16:00.278Z,5.30
2019-06-26T04:16:36.421Z,5.20
2019-06-26T04:17:12.661Z,4.93
2019-06-26T04:17:48.601Z,4.80
2019-06-26T04:18:24.631Z,4.77
2019-06-26T04:19:00.653Z,5.90
2019-06-26T04:19:36.892Z,6.00
2019-06-26T04:20:12.737Z,4.90
2019-06-26T04:20:48.656Z,5.60
2019-06-26T04:21:24.444Z,5.30
2019-06-26T04:22:00.277Z,5.80
2019-06-26T04:22:36.108Z,5.10
2019-06-26T04:23:11.997Z,6.10
2019-06-26T04:23:47.804Z,5.70
2019-06-26T04:24:23.633Z,4.60
2019-06-26T04:24:59.609Z,5.10
2019-06-26T04:25:38.150Z,5.60
2019-06-26T04:26:13.062Z,5.50
2019-06-26T04:26:48.913Z,5.23
2019-06-26T04:27:25.942Z,5.43
2019-06-26T04:28:02.068Z,5.70
2019-06-26T04:28:38.054Z,5.20
2019-06-26T04:29:13.911Z,4.90
2019-06-26T04:29:49.737Z,5.23
2019-06-26T04:30:25.733Z,6.30
2019-06-26T04:31:01.579Z,6.43
2019-06-26T04:31:37.450Z,7.60
2019-06-26T04:32:13.314Z,6.00
2019-06-26T04:32:49.167Z,5.87
2019-06-26T04:33:24.985Z,6.03
2019-06-26T04:34:00.796Z,6.13
2019-06-26T04:34:36.668Z,5.93
2019-06-26T04:35:12.680Z,7.13
2019-06-26T04:35:48.503Z,5.57
2019-06-26T04:36:24.375Z,7.00
2019-06-26T04:37:00.218Z,6.30
2019-06-26T04:37:36.049Z,6.67
2019-06-26T04:38:11.871Z,6.13
2019-06-26T04:38:47.683Z,6.20
2019-06-26T04:39:23.530Z,6.57
2019-06-26T04:39:59.395Z,6.50
2019-06-26T04:40:35.397Z,6.33
2019-06-26T04:41:11.196Z,6.77
2019-06-26T04:41:47.059Z,7.03
2019-06-26T04:42:22.956Z,6.07
2019-06-26T04:42:58.912Z,6.40
2019-06-26T04:43:34.693Z,5.97
2019-06-26T04:44:10.515Z,6.77
2019-06-26T04:44:46.330Z,6.17
2019-06-26T04:45:22.183Z,5.90
2019-06-26T04:45:58.856Z,5.57
2019-06-26T04:46:34.947Z,6.60
2019-06-26T04:47:10.766Z,6.47
2019-06-26T04:47:46.587Z,6.63
2019-06-26T04:48:22.393Z,6.17
2019-06-26T04:48:58.362Z,6.90
2019-06-26T04:49:34.168Z,5.90
2019-06-26T04:50:10.325Z,6.80
2019-06-26T04:50:46.198Z,5.90
2019-06-26T04:51:22.146Z,6.63
2019-06-26T04:51:58.179Z,5.40
2019-06-26T04:52:34.021Z,5.17
2019-06-26T04:53:09.858Z,5.90
2019-06-26T04:53:45.677Z,5.20
2019-06-26T04:54:21.560Z,6.07
2019-06-26T04:54:57.382Z,5.93
2019-06-26T04:55:33.306Z,6.83
2019-06-26T04:56:09.261Z,5.37
2019-06-26T04:56:45.112Z,5.70
2019-06-26T04:57:21.103Z,5.13
2019-06-26T04:57:56.938Z,4.53
2019-06-26T04:58:32.828Z,5.37
2019-06-26T04:59:08.653Z,5.70
2019-06-26T04:59:44.498Z,4.80
2019-06-26T05:00:21.845Z,5.07
2019-06-26T05:00:57.948Z,4.30
2019-06-26T05:01:33.792Z,4.80
2019-06-26T05:02:09.620Z,4.60
2019-06-26T05:02:45.510Z,4.50
2019-06-26T05:03:21.417Z,5.83
2019-06-26T05:03:57.220Z,5.47
2019-06-26T05:04:34.207Z,4.53
2019-06-26T05:05:10.153Z,5.20
2019-06-26T05:05:45.996Z,4.73
2019-06-26T05:06:21.803Z,5.63
2019-06-26T05:06:57.785Z,5.67
2019-06-26T05:07:34.201Z,4.10
2019-06-26T05:08:10.079Z,4.63
2019-06-26T05:08:45.911Z,5.00
2019-06-26T05:09:21.869Z,5.00
2019-06-26T05:09:57.813Z,4.97
2019-06-26T05:10:33.652Z,4.50
2019-06-26T05:11:12.515Z,3.93
2019-06-26T05:11:47.159Z,4.23
2019-06-26T05:12:22.987Z,5.53
2019-06-26T05:12:58.839Z,5.33
2019-06-26T05:13:34.783Z,4.43
2019-06-26T05:14:10.727Z,5.50
2019-06-26T05:14:46.551Z,5.20
2019-06-26T05:15:22.610Z,5.30
2019-06-26T05:16:13.726Z,4.80
2019-06-26T05:16:36.122Z,4.73
2019-06-26T05:17:11.966Z,5.73
2019-06-26T05:17:47.797Z,4.40
2019-06-26T05:18:23.718Z,4.30
2019-06-26T05:18:59.724Z,5.03
2019-06-26T05:19:35.585Z,5.40
2019-06-26T05:20:11.998Z,4.80
2019-06-26T05:20:48.084Z,4.80
2019-06-26T05:21:24.009Z,5.93
2019-06-26T05:21:59.933Z,5.87
2019-06-26T05:22:35.736Z,6.13
2019-06-26T05:23:11.578Z,6.53
2019-06-26T05:23:47.392Z,5.37
2019-06-26T05:24:24.061Z,5.80
2019-06-26T05:24:59.845Z,5.30
2019-06-26T05:25:35.689Z,5.80
2019-06-26T05:26:11.512Z,5.10
2019-06-26T05:26:47.486Z,5.80
2019-06-26T05:27:23.298Z,5.87
2019-06-26T05:27:59.285Z,6.50
2019-06-26T05:28:35.100Z,5.00
2019-06-26T05:29:10.939Z,5.53
2019-06-26T05:29:46.898Z,5.33
2019-06-26T05:30:22.726Z,5.80
2019-06-26T05:30:58.709Z,5.83
2019-06-26T05:31:34.542Z,5.17
2019-06-26T05:32:10.402Z,6.83
2019-06-26T05:32:46.211Z,5.33
2019-06-26T05:33:22.051Z,5.93
2019-06-26T05:33:57.841Z,5.00
2019-06-26T05:34:33.777Z,5.93
2019-06-26T05:35:09.663Z,6.30
2019-06-26T05:35:45.496Z,5.73
2019-06-26T05:36:21.332Z,6.50
2019-06-26T05:36:57.212Z,6.33
2019-06-26T05:37:33.079Z,5.90
2019-06-26T05:38:08.910Z,5.87
2019-06-26T05:38:44.729Z,6.13
2019-06-26T05:39:20.557Z,5.57
2019-06-26T05:39:56.385Z,6.40
2019-06-26T05:40:32.248Z,5.73
2019-06-26T05:41:08.190Z,5.83
2019-06-26T05:41:44.027Z,5.50
2019-06-26T05:42:19.843Z,5.70
2019-06-26T05:42:55.741Z,5.43
2019-06-26T05:43:31.701Z,5.47
2019-06-26T05:44:07.537Z,5.77
2019-06-26T05:44:43.409Z,5.77
2019-06-26T05:45:19.291Z,5.53
2019-06-26T05:45:55.251Z,5.50
2019-06-26T05:46:31.881Z,5.60
2019-06-26T05:47:07.829Z,5.67
2019-06-26T05:47:43.693Z,5.87
2019-06-26T05:48:19.555Z,6.13
2019-06-26T05:48:55.393Z,5.70
2019-06-26T05:49:31.213Z,5.40
2019-06-26T05:50:07.744Z,5.40
2019-06-26T05:50:43.850Z,6.20
2019-06-26T05:51:19.703Z,5.70
2019-06-26T05:51:55.855Z,5.90
2019-06-26T05:52:31.647Z,5.17
2019-06-26T05:53:07.612Z,5.80
2019-06-26T05:53:43.440Z,6.60
2019-06-26T05:54:19.218Z,5.00
2019-06-26T05:54:55.157Z,6.37
2019-06-26T05:55:30.961Z,5.00
2019-06-26T05:56:06.850Z,5.13
2019-06-26T05:56:45.328Z,6.30
2019-06-26T05:57:20.721Z,5.87
2019-06-26T05:57:56.581Z,6.00
2019-06-26T05:58:32.455Z,6.00
2019-06-26T05:59:08.388Z,5.20
2019-06-26T05:59:44.454Z,6.10
2019-06-26T06:00:20.458Z,6.83
2019-06-26T06:00:56.252Z,5.53
2019-06-26T06:01:32.090Z,5.17
2019-06-26T06:02:07.950Z,4.40
2019-06-26T06:02:43.770Z,5.33
2019-06-26T06:03:19.716Z,5.13
2019-06-26T06:03:55.522Z,4.10
2019-06-26T06:04:31.506Z,4.47
2019-06-26T06:05:07.601Z,4.27
2019-06-26T06:05:43.427Z,5.67
2019-06-26T06:06:19.355Z,6.40
2019-06-26T06:06:55.214Z,5.70
2019-06-26T06:07:31.000Z,6.43
2019-06-26T06:08:06.841Z,5.87
2019-06-26T06:08:42.696Z,5.53
2019-06-26T06:09:18.665Z,5.03
2019-06-26T06:09:54.825Z,5.80
2019-06-26T06:10:31.366Z,6.00
2019-06-26T06:11:08.187Z,5.93
2019-06-26T06:11:44.848Z,5.77
2019-06-26T06:12:21.527Z,6.60
2019-06-26T06:12:57.855Z,5.80
2019-06-26T06:13:34.272Z,6.43
2019-06-26T06:14:10.659Z,5.57
2019-06-26T06:14:46.755Z,5.90
2019-06-26T06:15:23.236Z,5.53
2019-06-26T06:15:59.547Z,5.27
2019-06-26T06:16:46.814Z,6.30
2019-06-26T06:17:13.804Z,5.87
2019-06-26T06:17:50.108Z,5.43
2019-06-26T06:18:26.462Z,4.90
2019-06-26T06:19:02.923Z,5.80
2019-06-26T06:19:39.349Z,5.70
2019-06-26T06:20:16.087Z,5.43
2019-06-26T06:20:52.338Z,5.57
2019-06-26T06:21:28.896Z,5.87
2019-06-26T06:22:04.839Z,4.70
2019-06-26T06:22:40.851Z,5.97
2019-06-26T06:23:16.875Z,5.40
2019-06-26T06:23:53.455Z,6.10
2019-06-26T06:24:29.736Z,5.30
2019-06-26T06:25:06.086Z,5.30
2019-06-26T06:25:42.477Z,5.90
2019-06-26T06:26:18.832Z,5.30
2019-06-26T06:26:54.923Z,5.30
2019-06-26T06:27:31.444Z,5.07
2019-06-26T06:28:08.377Z,5.23
2019-06-26T06:28:44.853Z,5.60
2019-06-26T06:29:22.131Z,6.03
2019-06-26T06:29:58.604Z,5.60
2019-06-26T06:30:34.943Z,5.20
2019-06-26T06:31:11.168Z,5.50
2019-06-26T06:31:47.217Z,5.60
2019-06-26T06:32:23.410Z,7.03
2019-06-26T06:32:59.750Z,5.97
2019-06-26T06:33:36.066Z,5.70
2019-06-26T06:34:12.413Z,5.40
2019-06-26T06:34:48.660Z,5.70
2019-06-26T06:35:24.726Z,4.80
2019-06-26T06:36:02.333Z,5.83
2019-06-26T06:36:38.691Z,6.67
2019-06-26T06:37:14.796Z,6.00
2019-06-26T06:37:51.012Z,5.67
2019-06-26T06:38:27.436Z,6.73
2019-06-26T06:39:04.292Z,5.83
2019-06-26T06:39:40.191Z,5.83
2019-06-26T06:40:16.345Z,5.67
2019-06-26T06:40:52.232Z,5.70
2019-06-26T06:41:28.227Z,5.80
2019-06-26T06:42:04.221Z,6.60
2019-06-26T06:42:40.142Z,5.73
2019-06-26T06:43:16.661Z,5.50
2019-06-26T06:43:52.612Z,5.90
2019-06-26T06:44:28.494Z,5.67
2019-06-26T06:45:04.344Z,6.53
2019-06-26T06:45:40.197Z,6.53
2019-06-26T06:46:15.963Z,6.03
2019-06-26T06:47:03.245Z,7.10
2019-06-26T06:47:33.482Z,6.57
2019-06-26T06:48:09.315Z,5.67
2019-06-26T06:48:45.156Z,6.00
2019-06-26T06:49:20.962Z,6.10
2019-06-26T06:49:56.770Z,6.63
2019-06-26T06:50:32.618Z,6.70
2019-06-26T06:51:08.574Z,6.40
2019-06-26T06:51:44.435Z,7.33
2019-06-26T06:52:20.383Z,5.10
2019-06-26T06:52:56.321Z,5.47
2019-06-26T06:53:32.284Z,6.07
2019-06-26T06:54:08.297Z,5.17
2019-06-26T06:54:44.143Z,5.93
2019-06-26T06:55:20.030Z,5.17
2019-06-26T06:55:55.807Z,6.10
2019-06-26T06:56:31.680Z,6.90
2019-06-26T06:57:07.649Z,5.67
2019-06-26T07:09:25.274Z,7.10
2019-06-26T07:10:01.136Z,8.43
2019-06-26T07:10:36.965Z,6.40
2019-06-26T07:11:12.803Z,7.10
2019-06-26T07:11:48.552Z,7.30
2019-06-26T07:12:24.589Z,7.63
2019-06-26T07:13:00.705Z,8.00
2019-06-26T07:13:36.708Z,6.97
2019-06-26T07:14:12.569Z,7.20
2019-06-26T07:14:48.481Z,5.80
2019-06-26T07:15:24.320Z,6.43
2019-06-26T07:16:00.170Z,7.70
2019-06-26T07:16:36.002Z,6.47
2019-06-26T07:17:20.352Z,7.33
2019-06-26T07:17:49.487Z,6.10
2019-06-26T07:18:25.403Z,7.00
2019-06-26T07:19:01.230Z,6.40
2019-06-26T07:19:37.059Z,7.63
2019-06-26T07:20:13.322Z,7.10
2019-06-26T07:20:49.254Z,5.60
2019-06-26T07:21:25.166Z,6.70
2019-06-26T07:22:01.406Z,6.20
2019-06-26T07:22:37.242Z,6.17
2019-06-26T07:23:13.090Z,6.90
2019-06-26T07:23:48.983Z,6.43
2019-06-26T07:24:24.795Z,6.37
2019-06-26T07:25:00.626Z,6.70
2019-06-26T07:25:36.467Z,6.23
2019-06-26T07:26:13.397Z,6.90
2019-06-26T07:26:49.419Z,6.10
2019-06-26T07:27:25.371Z,6.30
2019-06-26T07:28:02.112Z,7.67
2019-06-26T07:28:41.190Z,6.80
2019-06-26T07:29:16.983Z,7.40
2019-06-26T07:29:52.798Z,7.70
2019-06-26T07:30:28.600Z,6.37
2019-06-26T07:31:04.505Z,6.47
2019-06-26T07:31:40.460Z,6.43
2019-06-26T07:32:16.332Z,7.57
2019-06-26T07:32:52.135Z,6.83
2019-06-26T07:33:28.011Z,6.97
2019-06-26T07:34:03.862Z,7.00
2019-06-26T07:34:39.719Z,6.60
2019-06-26T07:35:15.632Z,7.00
2019-06-26T07:35:51.452Z,7.23
2019-06-26T07:36:27.269Z,8.47
2019-06-26T07:37:03.152Z,6.50
2019-06-26T07:37:39.023Z,5.87
2019-06-26T07:38:14.956Z,6.70
2019-06-26T07:38:50.811Z,6.47
2019-06-26T07:39:26.632Z,6.70
2019-06-26T07:40:02.609Z,6.70
2019-06-26T07:40:38.482Z,5.70
2019-06-26T07:41:14.359Z,6.07
2019-06-26T07:41:50.234Z,7.17
2019-06-26T07:42:26.368Z,7.07
2019-06-26T07:43:02.285Z,6.40
2019-06-26T07:43:38.190Z,7.10
2019-06-26T07:44:14.011Z,6.70
2019-06-26T07:44:49.892Z,6.40
2019-06-26T07:45:25.669Z,6.80
2019-06-26T07:46:01.449Z,6.30
2019-06-26T07:46:37.267Z,7.93
2019-06-26T07:47:23.132Z,7.43
2019-06-26T07:47:50.710Z,7.07
2019-06-26T07:48:26.547Z,6.27
2019-06-26T07:49:02.535Z,7.50
2019-06-26T07:49:38.316Z,6.23
2019-06-26T07:50:14.380Z,6.80
2019-06-26T07:50:50.195Z,6.43
2019-06-26T07:51:26.042Z,7.70
2019-06-26T07:52:01.861Z,6.70
2019-06-26T07:52:37.687Z,7.33
2019-06-26T07:53:13.475Z,6.67
2019-06-26T07:53:49.325Z,8.47
2019-06-26T07:54:25.181Z,8.13
2019-06-26T07:55:01.142Z,6.93
2019-06-26T07:55:40.358Z,7.87
2019-06-26T07:56:14.637Z,7.33
2019-06-26T07:56:50.499Z,7.77
2019-06-26T07:57:26.302Z,6.10
2019-06-26T07:58:02.160Z,7.40
2019-06-26T07:58:38.038Z,6.63
2019-06-26T07:59:13.872Z,7.10
2019-06-26T07:59:49.787Z,7.10
2019-06-26T08:00:25.729Z,6.73
2019-06-26T08:01:01.558Z,7.10
2019-06-26T08:01:37.378Z,7.50
2019-06-26T08:02:13.348Z,7.33
2019-06-26T08:02:49.265Z,7.00
2019-06-26T08:03:25.165Z,7.43
2019-06-26T08:04:00.969Z,6.67
2019-06-26T08:04:36.824Z,7.73
2019-06-26T08:05:14.222Z,7.37
2019-06-26T08:05:50.032Z,7.40
2019-06-26T08:06:25.841Z,8.07
2019-06-26T08:07:01.735Z,7.23
2019-06-26T08:07:37.661Z,6.47
2019-06-26T08:08:14.883Z,6.80
2019-06-26T08:08:51.003Z,6.73
2019-06-26T08:09:26.900Z,8.10
2019-06-26T08:10:02.815Z,7.63
2019-06-26T08:10:38.644Z,7.20
2019-06-26T08:11:14.489Z,7.00
2019-06-26T08:11:50.381Z,7.03
2019-06-26T08:12:26.198Z,7.60
2019-06-26T08:13:02.077Z,6.60
2019-06-26T08:13:37.887Z,7.17
2019-06-26T08:14:13.755Z,7.73
2019-06-26T08:14:49.617Z,7.00
2019-06-26T08:15:25.542Z,8.00
2019-06-26T08:16:01.419Z,7.30
2019-06-26T08:16:37.331Z,7.60
2019-06-26T08:17:13.148Z,6.63
2019-06-26T08:17:59.860Z,6.87
2019-06-26T08:18:26.834Z,7.30
2019-06-26T08:19:02.684Z,7.33
2019-06-26T08:19:38.507Z,7.73
2019-06-26T08:20:14.651Z,7.27
2019-06-26T08:21:10.617Z,7.53
2019-06-26T08:21:28.147Z,6.97
2019-06-26T08:22:04.663Z,7.10
2019-06-26T08:22:40.837Z,7.67
2019-06-26T08:23:16.629Z,6.73
2019-06-26T08:23:52.478Z,6.97
2019-06-26T08:24:28.294Z,6.77
2019-06-26T08:25:04.101Z,6.93
2019-06-26T08:25:39.917Z,7.07
2019-06-26T08:26:15.797Z,6.20
2019-06-26T08:26:51.633Z,7.77
2019-06-26T08:27:27.475Z,6.63
2019-06-26T08:28:03.314Z,6.93
2019-06-26T08:28:39.215Z,6.63
2019-06-26T08:29:15.034Z,6.30
2019-06-26T08:29:50.819Z,6.40
2019-06-26T08:30:26.715Z,7.50
2019-06-26T08:31:02.611Z,6.83
2019-06-26T08:31:38.441Z,6.57